Time;durP1;ratioP1;P1;durP2;ratioP2;P2;SDS_P1;SDS_P2;PMS_P1;PMS_P2;Temp;Humidity;BMP_temperature;BMP_pressure;BME280_temperature;BME280_humidity;BME280_pressure;Samples;Min_cycle;Max_cycle;Signal;HPM_P1;HPM_P2
2023/07/26 00:00:14;;;;;;;1.83;1.73;;;26.30;63.10;;;;;;5045707;28;20484;-67
2023/07/26 00:02:43;;;;;;;2.50;2.00;;;26.20;63.10;;;;;;5042220;28;20463;-67
2023/07/26 00:05:12;;;;;;;1.80;1.50;;;26.20;63.20;;;;;;5045657;28;20473;-67
2023/07/26 00:07:40;;;;;;;1.87;1.77;;;26.20;63.10;;;;;;5051867;28;20504;-67
2023/07/26 00:10:09;;;;;;;1.90;1.80;;;26.20;63.10;;;;;;5047141;28;20455;-67
2023/07/26 00:12:37;;;;;;;2.30;2.10;;;26.20;63.10;;;;;;5044647;28;20509;-68
2023/07/26 00:15:06;;;;;;;1.93;1.73;;;26.20;63.10;;;;;;5062616;28;20922;-67
2023/07/26 00:17:35;;;;;;;2.83;2.50;;;26.20;63.00;;;;;;5051193;28;20531;-67
2023/07/26 00:20:05;;;;;;;2.23;2.07;;;26.20;62.90;;;;;;5052344;28;20503;-68
2023/07/26 00:22:34;;;;;;;2.37;2.17;;;26.20;63.00;;;;;;5045504;28;20872;-67
2023/07/26 00:25:02;;;;;;;2.97;2.77;;;26.20;63.00;;;;;;5052338;28;20434;-67
2023/07/26 00:27:30;;;;;;;2.73;2.57;;;26.20;63.00;;;;;;5047319;28;20868;-67
2023/07/26 00:29:58;;;;;;;2.57;2.47;;;26.10;63.10;;;;;;5052163;28;20468;-67
2023/07/26 00:32:28;;;;;;;2.50;2.40;;;26.10;63.10;;;;;;5040865;28;20474;-67
2023/07/26 00:34:57;;;;;;;2.60;2.40;;;26.10;63.10;;;;;;5048749;28;20474;-67
2023/07/26 00:37:26;;;;;;;3.00;2.80;;;26.10;63.10;;;;;;5051211;28;20564;-67
2023/07/26 00:39:54;;;;;;;2.80;2.60;;;26.10;63.10;;;;;;5052429;28;20481;-67
2023/07/26 00:42:23;;;;;;;3.07;2.87;;;26.10;63.00;;;;;;5048034;28;20462;-69
2023/07/26 00:44:51;;;;;;;2.17;2.07;;;26.10;63.00;;;;;;5051911;28;20500;-66
2023/07/26 00:47:21;;;;;;;2.87;2.67;;;26.10;63.00;;;;;;5028385;28;20462;-67
2023/07/26 00:49:50;;;;;;;3.10;2.90;;;26.10;63.00;;;;;;5046279;28;20468;-67
2023/07/26 00:52:19;;;;;;;3.30;3.03;;;26.10;63.00;;;;;;5040476;28;20481;-67
2023/07/26 00:54:48;;;;;;;3.70;3.50;;;26.10;63.00;;;;;;5025305;28;20470;-68
2023/07/26 00:57:16;;;;;;;3.13;2.93;;;26.10;63.00;;;;;;5038236;28;20466;-69
2023/07/26 00:59:45;;;;;;;3.73;3.53;;;26.10;63.00;;;;;;5051320;28;20482;-68
2023/07/26 01:02:13;;;;;;;3.10;2.90;;;26.10;63.00;;;;;;5051053;28;20506;-69
2023/07/26 01:04:42;;;;;;;3.07;2.87;;;26.10;62.90;;;;;;5048916;28;20434;-67
2023/07/26 01:07:18;;;;;;;3.20;3.00;;;26.10;62.90;;;;;;5052968;28;20457;-67
2023/07/26 01:09:52;;;;;;;3.83;3.60;;;26.00;62.90;;;;;;5052530;28;20473;-69
2023/07/26 01:12:27;;;;;;;3.70;3.40;;;26.00;62.90;;;;;;5053332;28;20485;-68
2023/07/26 01:14:59;;;;;;;3.10;2.90;;;26.00;62.90;;;;;;5045837;28;20469;-67
2023/07/26 01:17:28;;;;;;;3.50;3.30;;;26.00;62.90;;;;;;5032060;28;20462;-67
2023/07/26 01:19:57;;;;;;;3.33;3.13;;;26.00;62.90;;;;;;5049007;28;20458;-70
2023/07/26 01:22:27;;;;;;;3.30;3.10;;;26.00;63.00;;;;;;5033452;28;20490;-67
2023/07/26 01:24:56;;;;;;;3.47;3.27;;;26.00;62.90;;;;;;5033437;28;20809;-67
2023/07/26 01:27:26;;;;;;;3.47;3.17;;;26.00;63.00;;;;;;5048005;28;20549;-67
2023/07/26 01:29:56;;;;;;;3.70;3.40;;;26.00;63.00;;;;;;5051266;28;20501;-67
2023/07/26 01:32:27;;;;;;;3.03;2.83;;;26.00;63.00;;;;;;5047892;28;20505;-67
2023/07/26 01:34:55;;;;;;;3.50;3.30;;;26.00;62.90;;;;;;5035600;28;20469;-68
2023/07/26 01:37:25;;;;;;;3.10;2.90;;;26.00;62.90;;;;;;5040561;28;21137;-69
2023/07/26 01:39:54;;;;;;;3.77;3.57;;;26.00;62.90;;;;;;5049343;28;20484;-67
2023/07/26 01:42:23;;;;;;;3.43;3.23;;;26.00;62.90;;;;;;5041856;28;20470;-67
2023/07/26 01:44:51;;;;;;;3.53;3.33;;;26.00;62.80;;;;;;5029430;28;20456;-67
2023/07/26 01:47:19;;;;;;;3.60;3.40;;;26.00;62.80;;;;;;5050307;28;20461;-67
2023/07/26 01:49:48;;;;;;;4.20;3.83;;;26.00;62.80;;;;;;5046405;28;20552;-67
2023/07/26 01:52:16;;;;;;;4.17;3.87;;;26.00;62.80;;;;;;5040846;28;20485;-69
2023/07/26 01:54:44;;;;;;;3.80;3.50;;;26.00;62.70;;;;;;5027425;28;20474;-69
2023/07/26 01:57:13;;;;;;;3.73;3.50;;;26.00;62.80;;;;;;5045393;28;20471;-67
2023/07/26 01:59:42;;;;;;;4.70;4.40;;;25.90;62.70;;;;;;5033679;28;20488;-67
2023/07/26 02:02:10;;;;;;;4.10;3.80;;;26.00;62.70;;;;;;5032488;28;20514;-67
2023/07/26 02:04:38;;;;;;;4.07;3.77;;;25.90;62.80;;;;;;5050241;28;20933;-67
2023/07/26 02:07:07;;;;;;;4.27;3.97;;;25.90;62.70;;;;;;5028135;28;20474;-68
2023/07/26 02:09:35;;;;;;;4.50;4.20;;;25.90;62.70;;;;;;5024978;28;20969;-70
2023/07/26 02:12:04;;;;;;;4.03;3.77;;;25.90;62.70;;;;;;5017836;28;20480;-67
2023/07/26 02:14:34;;;;;;;3.77;3.57;;;25.90;62.70;;;;;;5051187;28;20446;-68
2023/07/26 02:17:03;;;;;;;4.60;4.30;;;25.90;62.70;;;;;;5040996;28;20479;-68
2023/07/26 02:19:31;;;;;;;4.40;4.10;;;25.90;62.70;;;;;;5054379;28;20442;-67
2023/07/26 02:21:59;;;;;;;4.17;3.87;;;25.90;62.70;;;;;;5054592;28;20507;-67
2023/07/26 02:24:27;;;;;;;4.50;4.17;;;25.90;62.70;;;;;;5045205;28;20526;-67
2023/07/26 02:26:56;;;;;;;4.23;3.83;;;25.90;62.70;;;;;;5053010;28;20465;-71
2023/07/26 02:29:24;;;;;;;4.20;3.90;;;25.90;62.70;;;;;;5036141;28;20472;-68
2023/07/26 02:31:54;;;;;;;3.97;3.70;;;25.90;62.70;;;;;;5035902;28;20485;-68
2023/07/26 02:34:22;;;;;;;4.97;4.57;;;25.90;62.70;;;;;;5036671;28;20457;-67
2023/07/26 02:36:50;;;;;;;4.23;3.90;;;25.90;62.60;;;;;;5043004;28;20457;-67
2023/07/26 02:39:19;;;;;;;5.00;4.60;;;25.90;62.60;;;;;;5046296;28;20493;-67
2023/07/26 02:41:47;;;;;;;3.80;3.57;;;25.90;62.60;;;;;;5045651;28;20474;-70
2023/07/26 02:44:15;;;;;;;4.63;4.30;;;25.90;62.60;;;;;;5050420;28;21038;-67
2023/07/26 02:46:43;;;;;;;4.30;3.90;;;25.80;62.60;;;;;;5033579;28;20499;-68
2023/07/26 02:49:13;;;;;;;4.40;4.10;;;25.80;62.70;;;;;;5041244;28;20451;-68
2023/07/26 02:51:41;;;;;;;4.40;4.10;;;25.80;62.60;;;;;;5045375;28;20530;-67
2023/07/26 02:54:09;;;;;;;4.70;4.40;;;25.80;62.60;;;;;;5053689;28;20448;-67
2023/07/26 02:56:39;;;;;;;4.50;4.20;;;25.80;62.60;;;;;;5052456;28;20520;-68
2023/07/26 02:59:08;;;;;;;5.07;4.67;;;25.80;62.60;;;;;;5033588;28;20464;-67
2023/07/26 03:01:36;;;;;;;3.47;3.27;;;25.80;62.50;;;;;;5053807;28;20457;-67
2023/07/26 03:04:04;;;;;;;4.50;4.20;;;25.80;62.60;;;;;;5031462;28;20614;-70
2023/07/26 03:06:34;;;;;;;3.63;3.43;;;25.80;62.60;;;;;;5052733;28;20457;-68
2023/07/26 03:09:02;;;;;;;5.07;4.67;;;25.80;62.50;;;;;;5053608;28;20915;-69
2023/07/26 03:11:31;;;;;;;3.60;3.40;;;25.80;62.60;;;;;;5033593;28;20874;-67
2023/07/26 03:13:59;;;;;;;4.43;4.00;;;25.80;62.60;;;;;;5034413;28;20980;-67
2023/07/26 03:16:28;;;;;;;4.53;4.23;;;25.80;62.50;;;;;;5032706;28;20467;-67
2023/07/26 03:18:56;;;;;;;4.33;4.13;;;25.80;62.50;;;;;;5035648;28;20465;-67
2023/07/26 03:21:24;;;;;;;4.77;4.40;;;25.70;62.50;;;;;;5032865;28;20552;-67
2023/07/26 03:23:54;;;;;;;3.50;3.30;;;25.80;62.50;;;;;;5054060;28;20511;-67
2023/07/26 03:26:22;;;;;;;4.70;4.40;;;25.70;62.50;;;;;;5043377;28;20547;-67
2023/07/26 03:28:50;;;;;;;4.43;4.13;;;25.70;62.50;;;;;;5052721;28;20901;-67
2023/07/26 03:31:18;;;;;;;4.60;4.30;;;25.70;62.50;;;;;;5052791;28;20977;-68
2023/07/26 03:33:46;;;;;;;5.63;4.57;;;25.70;62.50;;;;;;5052265;28;20561;-68
2023/07/26 03:36:15;;;;;;;5.07;3.90;;;25.70;62.50;;;;;;5040164;28;20462;-69
2023/07/26 03:38:43;;;;;;;4.30;4.00;;;25.70;62.50;;;;;;5049909;28;20497;-68
2023/07/26 03:41:12;;;;;;;4.50;4.13;;;25.70;62.40;;;;;;5048659;28;20464;-67
2023/07/26 03:43:40;;;;;;;4.23;3.93;;;25.70;62.50;;;;;;5053909;28;20503;-67
2023/07/26 03:46:11;;;;;;;3.93;3.70;;;25.70;62.50;;;;;;5044458;28;20952;-68
2023/07/26 03:48:39;;;;;;;4.30;4.10;;;25.70;62.40;;;;;;5048648;28;20458;-67
2023/07/26 03:51:07;;;;;;;3.97;3.77;;;25.70;62.40;;;;;;5035293;28;20452;-68
2023/07/26 03:53:35;;;;;;;4.00;3.70;;;25.70;62.40;;;;;;5048098;28;20840;-67
2023/07/26 03:56:04;;;;;;;4.10;3.80;;;25.70;62.40;;;;;;5047952;28;20468;-68
2023/07/26 03:58:33;;;;;;;4.03;3.83;;;25.70;62.50;;;;;;5052529;28;20537;-68
2023/07/26 04:01:03;;;;;;;4.07;3.77;;;25.70;62.40;;;;;;5040195;28;20460;-68
2023/07/26 04:03:31;;;;;;;4.07;3.77;;;25.70;62.40;;;;;;5054594;28;21038;-67
2023/07/26 04:06:00;;;;;;;4.30;4.10;;;25.70;62.50;;;;;;5058002;28;20494;-67
2023/07/26 04:08:28;;;;;;;4.23;3.93;;;25.70;62.40;;;;;;5044506;28;20463;-67
2023/07/26 04:10:56;;;;;;;6.00;4.00;;;25.70;62.30;;;;;;5051566;28;20488;-70
2023/07/26 04:13:25;;;;;;;4.97;4.60;;;25.70;62.30;;;;;;5044129;28;20570;-67
2023/07/26 04:15:54;;;;;;;4.17;3.87;;;25.70;62.40;;;;;;5049142;28;20526;-67
2023/07/26 04:18:22;;;;;;;4.00;3.70;;;25.70;62.30;;;;;;5047226;28;20453;-67
2023/07/26 04:20:50;;;;;;;4.67;4.27;;;25.70;62.20;;;;;;5048678;28;20472;-67
2023/07/26 04:23:19;;;;;;;4.43;4.13;;;25.70;62.30;;;;;;5047211;28;20492;-67
2023/07/26 04:25:50;;;;;;;4.60;4.30;;;25.60;62.30;;;;;;5052046;28;20469;-67
2023/07/26 04:28:18;;;;;;;4.60;4.30;;;25.60;62.30;;;;;;5048887;28;20468;-67
2023/07/26 04:30:48;;;;;;;4.07;3.87;;;25.60;62.30;;;;;;5043414;28;20466;-67
2023/07/26 04:33:19;;;;;;;4.33;4.03;;;25.60;62.30;;;;;;5040090;28;20473;-67
2023/07/26 04:35:48;;;;;;;4.53;4.30;;;25.60;62.30;;;;;;5047109;28;20456;-67
2023/07/26 04:38:16;;;;;;;4.47;4.17;;;25.60;62.30;;;;;;5045121;28;20495;-68
2023/07/26 04:40:47;;;;;;;4.17;3.87;;;25.60;62.20;;;;;;5040747;28;20467;-69
2023/07/26 04:43:16;;;;;;;3.90;3.60;;;25.60;62.20;;;;;;5043263;28;20537;-68
2023/07/26 04:45:46;;;;;;;5.80;4.47;;;25.60;62.60;;;;;;5040291;28;20815;-68
2023/07/26 04:48:14;;;;;;;4.00;3.80;;;25.60;62.70;;;;;;5045128;28;20459;-67
2023/07/26 04:50:46;;;;;;;4.23;3.83;;;25.60;62.80;;;;;;5043409;28;20501;-67
2023/07/26 04:53:14;;;;;;;4.23;3.80;;;25.60;62.70;;;;;;5047456;28;20564;-70
2023/07/26 04:55:44;;;;;;;3.80;3.50;;;25.60;62.60;;;;;;5029109;28;20526;-67
2023/07/26 04:58:12;;;;;;;4.10;3.90;;;25.60;62.50;;;;;;5042361;28;20476;-67
2023/07/26 05:00:41;;;;;;;4.07;3.80;;;25.60;62.60;;;;;;5042095;28;20979;-68
2023/07/26 05:03:10;;;;;;;4.30;4.00;;;25.60;62.50;;;;;;5047748;28;20464;-67
2023/07/26 05:05:39;;;;;;;3.70;3.40;;;25.60;62.50;;;;;;5046512;28;20451;-67
2023/07/26 05:08:09;;;;;;;4.67;4.27;;;25.60;62.60;;;;;;5055015;28;20823;-68
2023/07/26 05:10:37;;;;;;;4.37;4.07;;;25.60;62.60;;;;;;5050290;28;20453;-67
2023/07/26 05:13:05;;;;;;;3.80;3.60;;;25.60;62.60;;;;;;5044153;28;20523;-68
2023/07/26 05:15:34;;;;;;;3.47;3.17;;;25.60;62.70;;;;;;5044942;28;21823;-68
2023/07/26 05:18:02;;;;;;;4.37;3.97;;;25.60;62.60;;;;;;5044234;28;20466;-68
2023/07/26 05:20:30;;;;;;;4.30;4.00;;;25.60;62.70;;;;;;5045345;28;20590;-68
2023/07/26 05:22:58;;;;;;;3.80;3.50;;;25.60;62.70;;;;;;5043980;28;20469;-67
2023/07/26 05:25:28;;;;;;;4.00;3.70;;;25.60;62.70;;;;;;5041890;28;20499;-69
2023/07/26 05:27:56;;;;;;;3.80;3.50;;;25.60;62.90;;;;;;5038737;28;20576;-67
2023/07/26 05:30:24;;;;;;;3.80;3.50;;;25.60;62.90;;;;;;5036514;28;20511;-67
2023/07/26 05:32:52;;;;;;;4.30;4.00;;;25.60;63.10;;;;;;5047529;28;20463;-67
2023/07/26 05:35:21;;;;;;;4.20;3.80;;;25.60;63.20;;;;;;5044046;28;21077;-67
2023/07/26 05:37:50;;;;;;;4.00;3.60;;;25.60;63.20;;;;;;5044618;28;20543;-67
2023/07/26 05:40:18;;;;;;;3.73;3.53;;;25.60;63.20;;;;;;5023465;28;20465;-67
2023/07/26 05:42:48;;;;;;;3.87;3.57;;;25.60;63.10;;;;;;5027887;28;20559;-69
2023/07/26 05:45:16;;;;;;;3.97;3.63;;;25.60;63.10;;;;;;5030898;28;20835;-68
2023/07/26 05:47:45;;;;;;;4.17;3.87;;;25.60;63.20;;;;;;5019031;28;20991;-67
2023/07/26 05:50:14;;;;;;;4.20;3.90;;;25.60;63.30;;;;;;5011865;28;20820;-67
2023/07/26 05:52:43;;;;;;;4.00;3.80;;;25.60;63.40;;;;;;5030171;28;20461;-67
2023/07/26 05:55:13;;;;;;;4.47;4.00;;;25.60;63.50;;;;;;5036642;28;20826;-67
2023/07/26 05:57:41;;;;;;;3.57;3.37;;;25.60;63.50;;;;;;5021889;28;20463;-67
2023/07/26 06:00:13;;;;;;;4.20;3.80;;;25.60;63.60;;;;;;5026592;28;20458;-68
2023/07/26 06:02:42;;;;;;;6.83;4.13;;;25.70;63.70;;;;;;5028455;28;20855;-67
2023/07/26 06:05:11;;;;;;;3.83;3.50;;;25.70;63.70;;;;;;5022416;28;20458;-67
2023/07/26 06:07:39;;;;;;;4.73;3.67;;;25.70;63.90;;;;;;5025228;28;20458;-68
2023/07/26 06:10:08;;;;;;;3.97;3.77;;;25.70;64.00;;;;;;5033318;28;20453;-67
2023/07/26 06:12:37;;;;;;;4.80;4.40;;;25.70;64.00;;;;;;5021526;28;20830;-68
2023/07/26 06:15:07;;;;;;;2.93;2.80;;;25.70;63.90;;;;;;5032877;28;20470;-67
2023/07/26 06:17:36;;;;;;;3.90;3.70;;;25.70;64.10;;;;;;5026788;28;20973;-67
2023/07/26 06:20:06;;;;;;;4.10;3.80;;;25.70;64.10;;;;;;5030547;28;20540;-67
2023/07/26 06:22:34;;;;;;;3.70;3.40;;;25.70;64.10;;;;;;5027141;28;20456;-69
2023/07/26 06:25:02;;;;;;;4.00;3.70;;;25.70;64.10;;;;;;5023216;28;20461;-70
2023/07/26 06:27:31;;;;;;;3.97;3.63;;;25.70;64.20;;;;;;5021217;28;20501;-67
2023/07/26 06:29:59;;;;;;;4.20;3.87;;;25.70;64.20;;;;;;5040557;28;20468;-67
2023/07/26 06:32:27;;;;;;;3.63;3.43;;;25.70;64.30;;;;;;5035744;28;20460;-68
2023/07/26 06:34:57;;;;;;;4.20;3.90;;;25.70;64.20;;;;;;5028167;28;20479;-69
2023/07/26 06:37:26;;;;;;;4.13;3.73;;;25.70;64.20;;;;;;5034979;28;20948;-69
2023/07/26 06:39:54;;;;;;;3.30;3.00;;;25.70;64.30;;;;;;5049938;28;20492;-67
2023/07/26 06:42:22;;;;;;;4.03;3.67;;;25.70;64.30;;;;;;5051344;28;20463;-67
2023/07/26 06:44:50;;;;;;;4.17;3.87;;;25.70;64.20;;;;;;5057655;28;20453;-68
2023/07/26 06:47:18;;;;;;;3.80;3.57;;;25.70;64.30;;;;;;5054800;28;20820;-67
2023/07/26 06:49:47;;;;;;;4.70;4.30;;;25.70;64.20;;;;;;5061467;28;20469;-69
2023/07/26 06:52:17;;;;;;;3.83;3.60;;;25.70;64.20;;;;;;5054683;28;20462;-70
2023/07/26 06:54:45;;;;;;;4.17;3.33;;;25.70;64.30;;;;;;5049129;28;20501;-67
2023/07/26 06:57:13;;;;;;;4.17;3.77;;;25.70;64.20;;;;;;5061091;28;20448;-67
2023/07/26 06:59:41;;;;;;;4.60;4.20;;;25.70;64.30;;;;;;5050990;28;20467;-67
2023/07/26 07:02:11;;;;;;;4.07;3.77;;;25.70;64.30;;;;;;5048607;28;20464;-67
2023/07/26 07:04:39;;;;;;;3.93;3.57;;;25.70;64.30;;;;;;5046926;28;20793;-68
2023/07/26 07:07:07;;;;;;;3.53;3.23;;;25.70;64.40;;;;;;5054783;28;20556;-68
2023/07/26 07:09:37;;;;;;;3.37;3.17;;;25.70;64.40;;;;;;5053219;28;20501;-68
2023/07/26 07:12:07;;;;;;;3.67;3.30;;;25.70;64.30;;;;;;5054610;28;20466;-67
2023/07/26 07:14:35;;;;;;;3.27;3.07;;;25.70;64.20;;;;;;5052370;28;20959;-68
2023/07/26 07:17:04;;;;;;;8.30;3.30;;;25.70;64.00;;;;;;5042772;28;20465;-75
2023/07/26 07:19:32;;;;;;;6.30;3.27;;;25.80;65.10;;;;;;5054432;28;20464;-75
2023/07/26 07:22:00;;;;;;;5.73;3.70;;;25.80;64.90;;;;;;5045695;28;20464;-75
2023/07/26 07:24:28;;;;;;;3.70;3.50;;;25.80;64.80;;;;;;5059529;28;20462;-75
2023/07/26 07:26:58;;;;;;;4.57;3.63;;;25.80;65.10;;;;;;5058168;28;20525;-75
2023/07/26 07:29:26;;;;;;;127.10;80.13;;;25.80;65.10;;;;;;5040953;28;20542;-76
2023/07/26 07:31:54;;;;;;;455.00;216.67;;;25.80;65.10;;;;;;5057561;28;20488;-76
2023/07/26 07:34:32;;;;;;;579.20;285.80;;;25.80;62.50;;;;;;5053000;28;20880;-76
2023/07/26 07:37:00;;;;;;;479.63;234.27;;;25.20;62.00;;;;;;5056785;28;20543;-78
2023/07/26 07:39:29;;;;;;;467.73;231.63;;;24.70;64.50;;;;;;5028080;28;20936;-77
2023/07/26 07:41:58;;;;;;;296.93;139.27;;;24.40;65.40;;;;;;5046562;28;20474;-76
2023/07/26 07:44:28;;;;;;;88.97;44.10;;;24.10;65.20;;;;;;5052361;28;20445;-77
2023/07/26 07:46:57;;;;;;;97.77;48.50;;;23.70;63.00;;;;;;5041601;28;20459;-77
2023/07/26 07:49:32;;;;;;;55.97;27.20;;;23.00;64.80;;;;;;5046371;28;20988;-77
2023/07/26 07:52:00;;;;;;;37.23;18.50;;;22.50;65.50;;;;;;5046434;28;20959;-78
2023/07/26 07:54:28;;;;;;;27.03;17.40;;;22.10;66.40;;;;;;5051349;28;20431;-77
2023/07/26 07:56:58;;;;;;;14.10;9.33;;;21.70;67.60;;;;;;5045206;28;20463;-77
2023/07/26 07:59:26;;;;;;;11.50;8.70;;;21.40;67.40;;;;;;5048492;28;20453;-77
2023/07/26 08:01:54;;;;;;;9.30;7.13;;;21.00;67.90;;;;;;5046739;28;20466;-77
2023/07/26 08:04:22;;;;;;;12.03;10.70;;;20.90;68.30;;;;;;5049455;28;20557;-77
2023/07/26 08:06:51;;;;;;;14.13;10.17;;;20.70;69.30;;;;;;5048880;28;21071;-77
2023/07/26 08:09:19;;;;;;;10.20;9.20;;;20.60;69.30;;;;;;5052939;28;20448;-77
2023/07/26 08:11:47;;;;;;;16.27;8.33;;;20.50;69.90;;;;;;5044917;28;20524;-76
2023/07/26 08:14:17;;;;;;;10.20;9.20;;;20.50;71.10;;;;;;5026007;28;20454;-76
2023/07/26 08:16:45;;;;;;;12.63;8.03;;;20.60;70.00;;;;;;5052093;28;20478;-80
2023/07/26 08:19:13;;;;;;;9.23;7.63;;;20.70;70.80;;;;;;5046691;28;20454;-79
2023/07/26 08:21:41;;;;;;;7.10;6.20;;;20.80;70.20;;;;;;5045627;28;21383;-79
2023/07/26 08:24:10;;;;;;;5.50;4.97;;;20.90;69.50;;;;;;5047010;28;20964;-78
2023/07/26 08:26:38;;;;;;;5.93;5.33;;;21.10;68.80;;;;;;5042978;28;20573;-77
2023/07/26 08:29:06;;;;;;;8.23;5.80;;;21.10;68.90;;;;;;5045326;28;20503;-77
2023/07/26 08:31:36;;;;;;;7.17;5.10;;;21.30;69.70;;;;;;5044711;28;20458;-77
2023/07/26 08:34:04;;;;;;;7.87;6.37;;;21.50;69.10;;;;;;5044575;28;20489;-78
2023/07/26 08:36:33;;;;;;;7.60;5.60;;;21.70;67.60;;;;;;5044124;28;20478;-77
2023/07/26 08:39:01;;;;;;;8.27;5.37;;;21.60;67.40;;;;;;4998927;28;1099793;-77
2023/07/26 08:41:30;;;;;;;6.50;4.50;;;21.50;67.40;;;;;;5033194;28;20222;-75
2023/07/26 08:44:00;;;;;;;5.33;3.93;;;21.20;67.70;;;;;;5027295;28;20478;-76
2023/07/26 08:46:29;;;;;;;5.87;3.90;;;21.10;69.10;;;;;;5029222;28;20466;-77
2023/07/26 08:49:00;;;;;;;6.10;3.90;;;21.30;68.90;;;;;;5035524;28;20463;-77
2023/07/26 08:51:30;;;;;;;8.80;6.60;;;21.50;68.80;;;;;;5020248;28;20487;-68
2023/07/26 08:53:59;;;;;;;6.37;4.80;;;21.70;66.90;;;;;;5031152;28;20250;-71
2023/07/26 08:56:30;;;;;;;7.13;5.70;;;21.60;67.90;;;;;;5028203;28;20551;-69
2023/07/26 08:58:59;;;;;;;6.93;5.80;;;21.60;69.10;;;;;;5033924;28;20467;-69
2023/07/26 09:01:28;;;;;;;10.27;6.80;;;21.70;68.90;;;;;;4999260;28;20501;-68
2023/07/26 09:04:05;;;;;;;6.17;5.67;;;21.90;68.40;;;;;;5000147;28;20466;-68
2023/07/26 09:06:40;;;;;;;5.50;4.70;;;22.10;67.80;;;;;;4996511;28;20460;-68
2023/07/26 09:09:08;;;;;;;7.53;6.83;;;22.00;67.40;;;;;;4991159;28;20470;-70
2023/07/26 09:11:48;;;;;;;7.30;5.50;;;22.10;67.90;;;;;;4997332;28;20468;-68
2023/07/26 09:14:17;;;;;;;12.07;6.10;;;22.40;67.60;;;;;;4989412;28;21000;-67
2023/07/26 09:16:47;;;;;;;9.70;5.40;;;22.70;67.70;;;;;;4993330;28;20483;-67
2023/07/26 09:19:17;;;;;;;9.53;5.70;;;22.90;65.50;;;;;;4994086;28;21111;-68
2023/07/26 09:21:45;;;;;;;7.37;4.90;;;22.90;64.70;;;;;;4988599;28;20471;-68
2023/07/26 09:24:13;;;;;;;5.67;4.73;;;22.90;64.70;;;;;;4999558;28;20462;-68
2023/07/26 09:26:43;;;;;;;5.83;4.20;;;22.80;65.20;;;;;;4992218;28;20493;-68
2023/07/26 09:29:15;;;;;;;9.20;5.70;;;22.50;65.80;;;;;;4998678;28;20456;-69
2023/07/26 09:31:44;;;;;;;6.00;3.60;;;22.30;66.70;;;;;;4992918;28;20459;-69
2023/07/26 09:34:14;;;;;;;9.73;6.40;;;22.30;65.60;;;;;;4982468;28;20552;-67
2023/07/26 09:36:46;;;;;;;9.40;6.20;;;22.40;67.70;;;;;;4989476;28;21009;-66
2023/07/26 09:39:15;;;;;;;8.27;6.67;;;22.80;68.00;;;;;;5005933;28;20492;-67
2023/07/26 09:41:45;;;;;;;8.10;6.77;;;23.10;67.60;;;;;;5012876;28;20526;-67
2023/07/26 09:44:16;;;;;;;11.03;7.47;;;23.40;66.90;;;;;;5020903;28;20483;-68
2023/07/26 09:46:49;;;;;;;12.10;7.93;;;23.70;66.60;;;;;;5006233;28;20468;-69
2023/07/26 09:49:19;;;;;;;14.00;8.20;;;24.00;66.20;;;;;;5011261;28;21415;-68
2023/07/26 09:51:54;;;;;;;10.07;8.80;;;24.20;65.90;;;;;;5009765;28;20479;-66
2023/07/26 09:54:27;;;;;;;9.93;7.97;;;24.40;65.70;;;;;;5006778;28;21182;-71
2023/07/26 09:57:01;;;;;;;15.47;8.57;;;24.60;65.40;;;;;;5010123;28;20472;-70
2023/07/26 09:59:30;;;;;;;10.00;6.83;;;24.70;65.40;;;;;;4983600;28;20599;-68
2023/07/26 10:02:03;;;;;;;12.87;8.07;;;24.90;65.30;;;;;;5014221;28;20562;-73
2023/07/26 10:04:38;;;;;;;16.13;8.00;;;25.10;65.30;;;;;;5015275;28;20563;-72
2023/07/26 10:07:13;;;;;;;15.10;9.47;;;25.20;65.30;;;;;;5008455;28;20494;-68
2023/07/26 10:09:44;;;;;;;16.50;9.23;;;25.30;65.30;;;;;;5007832;28;20457;-80
2023/07/26 10:12:13;;;;;;;16.20;9.00;;;25.30;65.40;;;;;;5009042;28;21250;-74
2023/07/26 10:14:42;;;;;;;13.87;8.27;;;25.40;65.40;;;;;;5009337;28;20470;-67
2023/07/26 10:17:11;;;;;;;13.10;7.93;;;25.50;65.00;;;;;;5012405;28;20893;-68
2023/07/26 10:19:41;;;;;;;13.90;7.80;;;25.50;64.80;;;;;;5013858;28;20458;-67
2023/07/26 10:22:11;;;;;;;14.40;8.73;;;25.50;64.90;;;;;;5009814;28;20462;-67
2023/07/26 10:24:42;;;;;;;12.43;7.80;;;25.50;65.00;;;;;;5009196;28;20459;-71
2023/07/26 10:27:11;;;;;;;12.17;7.40;;;25.50;65.00;;;;;;5007471;28;20474;-67
2023/07/26 10:29:40;;;;;;;12.53;8.60;;;25.50;65.10;;;;;;5010270;28;20455;-71
2023/07/26 10:32:09;;;;;;;13.60;8.30;;;25.60;65.10;;;;;;5009788;28;20527;-68
2023/07/26 10:34:38;;;;;;;9.10;7.30;;;25.60;65.10;;;;;;5009864;28;20458;-68
2023/07/26 10:37:19;;;;;;;10.97;7.67;;;25.60;65.20;;;;;;5009871;28;20973;-67
2023/07/26 10:39:48;;;;;;;10.57;7.53;;;25.60;65.20;;;;;;5007315;28;20503;-67
2023/07/26 10:42:25;;;;;;;12.70;8.03;;;25.60;65.20;;;;;;5011724;28;20457;-69
2023/07/26 10:44:54;;;;;;;10.90;7.10;;;25.60;65.20;;;;;;5014667;28;20956;-67
2023/07/26 10:47:22;;;;;;;14.13;6.83;;;25.70;65.20;;;;;;5012309;28;20466;-67
2023/07/26 10:49:54;;;;;;;10.10;7.57;;;25.70;65.10;;;;;;5011058;28;20461;-68
2023/07/26 10:52:35;;;;;;;11.77;7.30;;;25.70;65.10;;;;;;4990772;28;20796;-71
2023/07/26 10:55:22;;;;;;;10.73;7.00;;;25.70;65.10;;;;;;5008899;28;20482;-67
2023/07/26 10:57:50;;;;;;;11.80;6.67;;;25.80;65.00;;;;;;5000281;28;20481;-68
2023/07/26 11:00:23;;;;;;;8.23;5.93;;;25.80;64.90;;;;;;5009866;28;20874;-70
2023/07/26 11:03:00;;;;;;;11.47;6.80;;;25.80;64.70;;;;;;5008471;28;20551;-70
2023/07/26 11:05:29;;;;;;;9.13;6.27;;;25.80;64.50;;;;;;5007310;28;20456;-68
2023/07/26 11:08:02;;;;;;;10.87;6.67;;;25.90;64.50;;;;;;5016772;28;20450;-68
2023/07/26 11:10:32;;;;;;;9.10;6.00;;;25.90;64.40;;;;;;5015309;28;20471;-67
2023/07/26 11:13:11;;;;;;;12.20;6.10;;;25.80;64.40;;;;;;5015090;28;20475;-70
2023/07/26 11:15:41;;;;;;;8.27;5.80;;;25.90;64.30;;;;;;5009371;28;21311;-71
2023/07/26 11:18:30;;;;;;;11.00;5.10;;;25.90;64.30;;;;;;5014248;28;22361;-68
2023/07/26 11:20:58;;;;;;;8.10;5.87;;;25.90;64.20;;;;;;4982439;28;20945;-67
2023/07/26 11:23:29;;;;;;;8.10;5.40;;;25.90;64.10;;;;;;5015095;28;20474;-67
2023/07/26 11:26:00;;;;;;;9.20;4.80;;;26.00;63.90;;;;;;5009984;28;20460;-71
2023/07/26 11:28:31;;;;;;;9.47;6.33;;;26.00;63.80;;;;;;5013068;28;20459;-70
2023/07/26 11:30:59;;;;;;;5.53;5.03;;;26.00;63.90;;;;;;5015128;28;20467;-71
2023/07/26 11:33:29;;;;;;;7.13;6.20;;;26.00;64.10;;;;;;5011307;28;20463;-67
2023/07/26 11:35:59;;;;;;;6.80;5.53;;;26.00;64.30;;;;;;5015535;28;20464;-67
2023/07/26 11:38:29;;;;;;;9.47;5.80;;;26.10;64.30;;;;;;5013189;28;20510;-70
2023/07/26 11:40:58;;;;;;;5.50;5.00;;;26.10;64.40;;;;;;5009179;28;20455;-69
2023/07/26 11:43:28;;;;;;;9.80;5.30;;;26.10;64.40;;;;;;5013382;28;20464;-69
2023/07/26 11:45:58;;;;;;;6.70;4.93;;;26.20;64.20;;;;;;5013874;28;20470;-71
2023/07/26 11:48:29;;;;;;;6.23;4.90;;;26.20;64.10;;;;;;5015036;28;20494;-69
2023/07/26 11:51:03;;;;;;;6.33;3.97;;;26.30;64.00;;;;;;5011751;28;20465;-67
2023/07/26 11:53:36;;;;;;;6.00;4.60;;;26.30;63.80;;;;;;5006848;28;20815;-68
2023/07/26 11:56:12;;;;;;;4.90;3.53;;;26.40;63.60;;;;;;5010328;28;20475;-68
2023/07/26 11:58:43;;;;;;;5.50;4.03;;;26.50;63.40;;;;;;5011670;28;20882;-67
2023/07/26 12:01:15;;;;;;;5.07;3.90;;;26.50;63.30;;;;;;5014428;28;20559;-69
2023/07/26 12:03:44;;;;;;;6.37;3.83;;;26.60;63.30;;;;;;5014976;28;20478;-67
2023/07/26 12:06:13;;;;;;;4.60;4.20;;;26.60;63.20;;;;;;5012694;28;20555;-68
2023/07/26 12:08:43;;;;;;;4.67;4.07;;;26.60;63.20;;;;;;5012086;28;20476;-67
2023/07/26 12:11:12;;;;;;;4.83;4.40;;;26.60;63.20;;;;;;5018666;28;20488;-68
2023/07/26 12:13:41;;;;;;;4.50;4.10;;;26.60;63.10;;;;;;4999369;28;20685;-68
2023/07/26 12:16:10;;;;;;;4.63;3.00;;;26.50;63.00;;;;;;5006413;28;21067;-67
2023/07/26 12:18:51;;;;;;;6.03;3.50;;;26.50;63.00;;;;;;5002492;28;20484;-69
2023/07/26 12:21:24;;;;;;;5.13;4.60;;;26.50;62.80;;;;;;5002835;28;20517;-73
2023/07/26 12:23:56;;;;;;;5.30;3.90;;;26.50;63.00;;;;;;5010294;28;20960;-67
2023/07/26 12:26:31;;;;;;;6.10;3.97;;;26.50;63.00;;;;;;5015473;28;20451;-68
2023/07/26 12:29:02;;;;;;;5.00;3.90;;;26.50;63.10;;;;;;5008822;28;20461;-67
2023/07/26 12:31:32;;;;;;;4.30;3.73;;;26.50;63.20;;;;;;5007890;28;20464;-71
2023/07/26 12:34:04;;;;;;;4.50;3.50;;;26.50;63.10;;;;;;5008693;28;20533;-71
2023/07/26 12:36:46;;;;;;;4.73;3.23;;;26.60;63.20;;;;;;5017522;28;20892;-75
2023/07/26 12:39:19;;;;;;;4.80;3.37;;;26.60;63.20;;;;;;5013067;28;20504;-71
2023/07/26 12:41:48;;;;;;;10.40;4.60;;;26.60;63.20;;;;;;5008263;28;20534;-72
2023/07/26 12:44:18;;;;;;;12.13;4.07;;;26.60;63.20;;;;;;5014021;28;20468;-76
2023/07/26 12:46:47;;;;;;;15.13;4.97;;;26.70;63.10;;;;;;5008741;28;20465;-77
2023/07/26 12:49:19;;;;;;;12.07;4.80;;;26.70;63.10;;;;;;5005146;28;21005;-72
2023/07/26 12:51:49;;;;;;;9.20;4.63;;;26.80;63.00;;;;;;5004606;28;20476;-76
2023/07/26 12:54:20;;;;;;;8.00;4.03;;;26.80;63.10;;;;;;5000403;28;20515;-74